sensor_id;sensor_type;location;lat;lon;timestamp;pressure;altitude;pressure_sealevel;temperature;humidity
12624;BME280;6377;42.836;23.998;2023-04-08T00:02:01;95763.06;;;5.62;100.00
12624;BME280;6377;42.836;23.998;2023-04-08T00:04:30;95725.38;;;5.36;100.00
12624;BME280;6377;42.836;23.998;2023-04-08T00:06:57;95763.03;;;5.35;100.00
12624;BME280;6377;42.836;23.998;2023-04-08T00:09:25;95730.47;;;5.01;100.00
12624;BME280;6377;42.836;23.998;2023-04-08T00:11:52;95750.44;;;5.12;100.00
12624;BME280;6377;42.836;23.998;2023-04-08T00:14:25;95719.31;;;4.99;100.00
12624;BME280;6377;42.836;23.998;2023-04-08T00:16:53;95697.94;;;4.94;100.00
12624;BME280;6377;42.836;23.998;2023-04-08T00:19:20;95779.31;;;5.39;100.00
12624;BME280;6377;42.836;23.998;2023-04-08T00:21:48;95783.19;;;5.35;100.00
12624;BME280;6377;42.836;23.998;2023-04-08T00:24:16;95697.97;;;4.84;100.00
12624;BME280;6377;42.836;23.998;2023-04-08T00:26:43;95779.16;;;5.40;100.00
12624;BME280;6377;42.836;23.998;2023-04-08T00:29:10;95753.88;;;5.22;100.00
12624;BME280;6377;42.836;23.998;2023-04-08T00:31:37;95777.81;;;5.36;100.00
12624;BME280;6377;42.836;23.998;2023-04-08T00:34:04;95772.41;;;5.38;100.00
12624;BME280;6377;42.836;23.998;2023-04-08T00:36:32;95748.38;;;5.05;100.00
12624;BME280;6377;42.836;23.998;2023-04-08T00:39:04;95584.34;;;3.92;100.00
12624;BME280;6377;42.836;23.998;2023-04-08T00:41:32;95776.81;;;5.10;100.00
12624;BME280;6377;42.836;23.998;2023-04-08T00:44:00;95772.53;;;5.09;100.00
12624;BME280;6377;42.836;23.998;2023-04-08T00:46:27;95779.84;;;5.05;100.00
12624;BME280;6377;42.836;23.998;2023-04-08T00:48:55;95712.41;;;4.51;100.00
12624;BME280;6377;42.836;23.998;2023-04-08T00:51:22;95783.19;;;4.79;100.00
12624;BME280;6377;42.836;23.998;2023-04-08T00:53:50;95736.69;;;4.34;100.00
12624;BME280;6377;42.836;23.998;2023-04-08T00:56:19;95775.66;;;4.66;100.00
12624;BME280;6377;42.836;23.998;2023-04-08T00:58:47;95747.94;;;4.54;100.00
12624;BME280;6377;42.836;23.998;2023-04-08T01:01:21;95619.06;;;3.66;100.00
12624;BME280;6377;42.836;23.998;2023-04-08T01:03:57;95788.03;;;4.64;100.00
12624;BME280;6377;42.836;23.998;2023-04-08T01:06:31;95789.72;;;4.65;100.00
12624;BME280;6377;42.836;23.998;2023-04-08T01:09:04;95775.66;;;4.47;100.00
12624;BME280;6377;42.836;23.998;2023-04-08T01:11:34;95755.00;;;4.25;100.00
12624;BME280;6377;42.836;23.998;2023-04-08T01:14:04;95702.63;;;3.86;100.00
12624;BME280;6377;42.836;23.998;2023-04-08T01:16:35;95746.03;;;4.18;100.00
12624;BME280;6377;42.836;23.998;2023-04-08T01:19:05;95783.50;;;4.37;100.00
12624;BME280;6377;42.836;23.998;2023-04-08T01:21:35;95794.97;;;4.46;100.00
12624;BME280;6377;42.836;23.998;2023-04-08T01:24:10;95766.44;;;4.33;100.00
12624;BME280;6377;42.836;23.998;2023-04-08T01:26:43;95775.09;;;4.24;100.00
12624;BME280;6377;42.836;23.998;2023-04-08T01:29:11;95755.00;;;4.15;100.00
12624;BME280;6377;42.836;23.998;2023-04-08T01:31:44;95759.69;;;4.21;100.00
12624;BME280;6377;42.836;23.998;2023-04-08T01:34:13;95795.38;;;4.51;100.00
12624;BME280;6377;42.836;23.998;2023-04-08T01:36:48;95746.59;;;4.21;100.00
12624;BME280;6377;42.836;23.998;2023-04-08T01:39:17;95708.69;;;3.96;100.00
12624;BME280;6377;42.836;23.998;2023-04-08T01:41:48;95794.13;;;4.55;100.00
12624;BME280;6377;42.836;23.998;2023-04-08T01:44:17;95729.06;;;4.03;100.00
12624;BME280;6377;42.836;23.998;2023-04-08T01:46:47;95751.00;;;4.21;100.00
12624;BME280;6377;42.836;23.998;2023-04-08T01:49:15;95762.13;;;4.23;100.00
12624;BME280;6377;42.836;23.998;2023-04-08T01:51:43;95739.97;;;4.08;100.00
12624;BME280;6377;42.836;23.998;2023-04-08T01:54:15;95801.44;;;4.51;100.00
12624;BME280;6377;42.836;23.998;2023-04-08T01:56:43;95787.13;;;4.46;100.00
12624;BME280;6377;42.836;23.998;2023-04-08T01:59:13;95757.06;;;4.31;100.00
12624;BME280;6377;42.836;23.998;2023-04-08T02:01:43;95729.94;;;4.22;100.00
12624;BME280;6377;42.836;23.998;2023-04-08T02:04:11;95756.50;;;4.37;100.00
12624;BME280;6377;42.836;23.998;2023-04-08T02:06:39;95752.09;;;4.28;100.00
12624;BME280;6377;42.836;23.998;2023-04-08T02:09:06;95767.94;;;4.36;100.00
12624;BME280;6377;42.836;23.998;2023-04-08T02:11:33;95790.00;;;4.33;100.00
12624;BME280;6377;42.836;23.998;2023-04-08T02:14:01;95778.28;;;4.28;100.00
12624;BME280;6377;42.836;23.998;2023-04-08T02:16:34;95769.03;;;4.24;100.00
12624;BME280;6377;42.836;23.998;2023-04-08T02:19:10;95766.81;;;4.29;100.00
12624;BME280;6377;42.836;23.998;2023-04-08T02:21:45;95784.50;;;4.36;100.00
12624;BME280;6377;42.836;23.998;2023-04-08T02:24:13;95785.56;;;4.43;100.00
12624;BME280;6377;42.836;23.998;2023-04-08T02:26:44;95806.66;;;4.61;100.00
12624;BME280;6377;42.836;23.998;2023-04-08T02:29:14;95771.66;;;4.24;100.00
12624;BME280;6377;42.836;23.998;2023-04-08T02:31:44;95827.09;;;4.58;100.00
12624;BME280;6377;42.836;23.998;2023-04-08T02:34:13;95820.59;;;4.62;100.00
12624;BME280;6377;42.836;23.998;2023-04-08T02:36:41;95773.03;;;4.37;100.00
12624;BME280;6377;42.836;23.998;2023-04-08T02:39:10;95739.56;;;4.22;100.00
12624;BME280;6377;42.836;23.998;2023-04-08T02:41:38;95764.50;;;4.45;100.00
12624;BME280;6377;42.836;23.998;2023-04-08T02:44:05;95773.03;;;4.47;100.00
12624;BME280;6377;42.836;23.998;2023-04-08T02:46:32;95780.06;;;4.46;100.00
12624;BME280;6377;42.836;23.998;2023-04-08T02:49:01;95773.59;;;4.41;100.00
12624;BME280;6377;42.836;23.998;2023-04-08T02:51:28;95777.84;;;4.32;100.00
12624;BME280;6377;42.836;23.998;2023-04-08T02:53:56;95772.22;;;4.27;100.00
12624;BME280;6377;42.836;23.998;2023-04-08T02:56:24;95766.69;;;4.11;100.00
12624;BME280;6377;42.836;23.998;2023-04-08T02:58:51;95786.69;;;4.31;100.00
12624;BME280;6377;42.836;23.998;2023-04-08T03:01:18;95778.00;;;4.31;100.00
12624;BME280;6377;42.836;23.998;2023-04-08T03:03:45;95789.44;;;4.39;100.00
12624;BME280;6377;42.836;23.998;2023-04-08T03:06:14;95795.34;;;4.32;100.00
12624;BME280;6377;42.836;23.998;2023-04-08T03:08:42;95772.34;;;4.16;100.00
12624;BME280;6377;42.836;23.998;2023-04-08T03:11:09;95791.50;;;4.17;100.00
12624;BME280;6377;42.836;23.998;2023-04-08T03:13:39;95781.56;;;4.20;100.00
12624;BME280;6377;42.836;23.998;2023-04-08T03:16:07;95763.41;;;4.19;100.00
12624;BME280;6377;42.836;23.998;2023-04-08T03:18:37;95759.69;;;4.21;100.00
12624;BME280;6377;42.836;23.998;2023-04-08T03:21:07;95810.97;;;4.43;100.00
12624;BME280;6377;42.836;23.998;2023-04-08T03:23:36;95791.91;;;4.22;100.00
12624;BME280;6377;42.836;23.998;2023-04-08T03:26:03;95775.50;;;4.01;100.00
12624;BME280;6377;42.836;23.998;2023-04-08T03:28:31;95753.03;;;3.88;100.00
12624;BME280;6377;42.836;23.998;2023-04-08T03:30:58;95772.63;;;4.04;100.00
12624;BME280;6377;42.836;23.998;2023-04-08T03:33:26;95795.47;;;4.11;100.00
12624;BME280;6377;42.836;23.998;2023-04-08T03:35:53;95827.50;;;4.34;100.00
12624;BME280;6377;42.836;23.998;2023-04-08T03:38:21;95780.63;;;4.02;100.00
12624;BME280;6377;42.836;23.998;2023-04-08T03:40:49;95773.03;;;3.99;100.00
12624;BME280;6377;42.836;23.998;2023-04-08T03:43:20;95818.94;;;4.22;100.00
12624;BME280;6377;42.836;23.998;2023-04-08T03:46:12;95819.78;;;4.42;100.00
12624;BME280;6377;42.836;23.998;2023-04-08T03:48:39;95792.31;;;4.17;100.00
12624;BME280;6377;42.836;23.998;2023-04-08T03:51:06;95777.56;;;4.07;100.00
12624;BME280;6377;42.836;23.998;2023-04-08T03:53:33;95770.41;;;3.99;100.00
12624;BME280;6377;42.836;23.998;2023-04-08T03:56:04;95784.47;;;4.17;100.00
12624;BME280;6377;42.836;23.998;2023-04-08T03:58:37;95717.78;;;3.92;100.00
12624;BME280;6377;42.836;23.998;2023-04-08T04:01:04;95799.53;;;4.34;100.00
12624;BME280;6377;42.836;23.998;2023-04-08T04:03:32;95715.56;;;3.88;100.00
12624;BME280;6377;42.836;23.998;2023-04-08T04:05:59;95772.34;;;4.45;100.00
12624;BME280;6377;42.836;23.998;2023-04-08T04:08:26;95775.25;;;4.51;100.00
12624;BME280;6377;42.836;23.998;2023-04-08T04:10:53;95789.59;;;4.57;100.00
12624;BME280;6377;42.836;23.998;2023-04-08T04:13:22;95824.44;;;4.86;100.00
12624;BME280;6377;42.836;23.998;2023-04-08T04:15:49;95785.97;;;4.58;100.00
12624;BME280;6377;42.836;23.998;2023-04-08T04:18:16;95807.09;;;4.66;100.00
12624;BME280;6377;42.836;23.998;2023-04-08T04:20:44;95770.56;;;4.45;100.00
12624;BME280;6377;42.836;23.998;2023-04-08T04:23:11;95780.34;;;4.53;100.00
12624;BME280;6377;42.836;23.998;2023-04-08T04:25:41;95723.16;;;4.29;100.00
12624;BME280;6377;42.836;23.998;2023-04-08T04:28:08;95693.81;;;4.07;100.00
12624;BME280;6377;42.836;23.998;2023-04-08T04:30:38;95791.09;;;4.60;100.00
12624;BME280;6377;42.836;23.998;2023-04-08T04:33:05;95780.06;;;4.56;100.00
12624;BME280;6377;42.836;23.998;2023-04-08T04:35:33;95786.13;;;4.57;100.00
12624;BME280;6377;42.836;23.998;2023-04-08T04:38:00;95788.31;;;4.61;100.00
12624;BME280;6377;42.836;23.998;2023-04-08T04:40:27;95829.13;;;4.92;100.00
12624;BME280;6377;42.836;23.998;2023-04-08T04:42:54;95812.16;;;4.87;100.00
12624;BME280;6377;42.836;23.998;2023-04-08T04:45:22;95788.88;;;4.74;100.00
12624;BME280;6377;42.836;23.998;2023-04-08T04:47:50;95777.16;;;4.59;100.00
12624;BME280;6377;42.836;23.998;2023-04-08T04:50:17;95776.59;;;4.65;100.00
12624;BME280;6377;42.836;23.998;2023-04-08T04:52:45;95783.34;;;4.68;100.00
12624;BME280;6377;42.836;23.998;2023-04-08T04:55:12;95836.66;;;5.05;100.00
12624;BME280;6377;42.836;23.998;2023-04-08T04:57:40;95771.38;;;4.75;100.00
12624;BME280;6377;42.836;23.998;2023-04-08T05:00:09;95795.88;;;4.93;100.00
12624;BME280;6377;42.836;23.998;2023-04-08T05:02:36;95690.38;;;4.25;100.00
12624;BME280;6377;42.836;23.998;2023-04-08T05:05:05;95844.34;;;5.35;100.00
12624;BME280;6377;42.836;23.998;2023-04-08T05:07:41;95716.91;;;4.59;100.00
12624;BME280;6377;42.836;23.998;2023-04-08T05:10:11;95773.94;;;4.94;100.00
12624;BME280;6377;42.836;23.998;2023-04-08T05:12:39;95821.88;;;5.23;100.00
12624;BME280;6377;42.836;23.998;2023-04-08T05:15:06;95812.38;;;5.22;100.00
12624;BME280;6377;42.836;23.998;2023-04-08T05:17:34;95816.63;;;5.23;100.00
12624;BME280;6377;42.836;23.998;2023-04-08T05:20:01;95799.41;;;5.11;100.00
12624;BME280;6377;42.836;23.998;2023-04-08T05:22:30;95810.44;;;5.24;100.00
12624;BME280;6377;42.836;23.998;2023-04-08T05:24:57;95780.44;;;4.90;100.00
12624;BME280;6377;42.836;23.998;2023-04-08T05:27:24;95860.09;;;5.35;100.00
12624;BME280;6377;42.836;23.998;2023-04-08T05:29:52;95754.16;;;4.53;100.00
12624;BME280;6377;42.836;23.998;2023-04-08T05:32:19;95854.06;;;5.06;100.00
12624;BME280;6377;42.836;23.998;2023-04-08T05:34:49;95725.78;;;4.29;100.00
12624;BME280;6377;42.836;23.998;2023-04-08T05:37:16;95781.00;;;4.74;100.00
12624;BME280;6377;42.836;23.998;2023-04-08T05:39:45;95858.56;;;5.33;100.00
12624;BME280;6377;42.836;23.998;2023-04-08T05:42:12;95860.75;;;5.37;100.00
12624;BME280;6377;42.836;23.998;2023-04-08T05:44:39;95677.97;;;4.37;100.00
12624;BME280;6377;42.836;23.998;2023-04-08T05:47:08;95839.09;;;5.45;100.00
12624;BME280;6377;42.836;23.998;2023-04-08T05:49:35;95730.97;;;4.58;100.00
12624;BME280;6377;42.836;23.998;2023-04-08T05:52:02;95632.66;;;4.17;100.00
12624;BME280;6377;42.836;23.998;2023-04-08T05:54:30;95853.69;;;5.57;100.00
12624;BME280;6377;42.836;23.998;2023-04-08T05:56:58;95868.31;;;5.59;100.00
12624;BME280;6377;42.836;23.998;2023-04-08T05:59:26;95849.91;;;5.69;100.00
12624;BME280;6377;42.836;23.998;2023-04-08T06:01:53;95647.06;;;4.40;100.00
12624;BME280;6377;42.836;23.998;2023-04-08T06:04:21;95798.16;;;5.52;100.00
12624;BME280;6377;42.836;23.998;2023-04-08T06:06:48;95845.97;;;5.92;100.00
12624;BME280;6377;42.836;23.998;2023-04-08T06:09:16;95810.56;;;5.96;100.00
12624;BME280;6377;42.836;23.998;2023-04-08T06:11:43;95819.75;;;6.10;100.00
12624;BME280;6377;42.836;23.998;2023-04-08T06:14:13;95836.66;;;6.25;100.00
12624;BME280;6377;42.836;23.998;2023-04-08T06:16:40;95770.75;;;6.01;100.00
12624;BME280;6377;42.836;23.998;2023-04-08T06:19:07;95830.81;;;6.49;100.00
12624;BME280;6377;42.836;23.998;2023-04-08T06:21:34;95832.56;;;6.58;100.00
12624;BME280;6377;42.836;23.998;2023-04-08T06:24:01;95829.13;;;6.75;100.00
12624;BME280;6377;42.836;23.998;2023-04-08T06:26:29;95829.91;;;6.75;100.00
12624;BME280;6377;42.836;23.998;2023-04-08T06:28:56;95828.19;;;6.84;100.00
12624;BME280;6377;42.836;23.998;2023-04-08T06:31:24;95823.38;;;6.97;100.00
12624;BME280;6377;42.836;23.998;2023-04-08T06:33:52;95811.13;;;6.88;100.00
12624;BME280;6377;42.836;23.998;2023-04-08T06:36:20;95756.84;;;6.79;100.00
12624;BME280;6377;42.836;23.998;2023-04-08T06:38:47;95782.34;;;7.04;100.00
12624;BME280;6377;42.836;23.998;2023-04-08T06:41:14;95825.53;;;7.45;100.00
12624;BME280;6377;42.836;23.998;2023-04-08T06:43:42;95774.19;;;7.15;100.00
12624;BME280;6377;42.836;23.998;2023-04-08T06:46:11;95805.34;;;7.54;100.00
12624;BME280;6377;42.836;23.998;2023-04-08T06:48:42;95753.84;;;7.51;100.00
12624;BME280;6377;42.836;23.998;2023-04-08T06:51:11;95660.25;;;7.07;100.00
12624;BME280;6377;42.836;23.998;2023-04-08T06:53:38;95804.69;;;8.27;100.00
12624;BME280;6377;42.836;23.998;2023-04-08T06:56:08;95762.25;;;8.05;100.00
12624;BME280;6377;42.836;23.998;2023-04-08T06:58:36;95820.06;;;8.48;100.00
12624;BME280;6377;42.836;23.998;2023-04-08T07:01:03;95800.91;;;8.46;100.00
12624;BME280;6377;42.836;23.998;2023-04-08T07:03:33;95783.97;;;8.57;100.00
12624;BME280;6377;42.836;23.998;2023-04-08T07:06:02;95737.50;;;8.48;97.67
12624;BME280;6377;42.836;23.998;2023-04-08T07:08:29;95800.16;;;8.94;95.71
12624;BME280;6377;42.836;23.998;2023-04-08T07:11:00;95763.38;;;8.76;97.46
12624;BME280;6377;42.836;23.998;2023-04-08T07:13:30;95832.63;;;9.27;93.71
12624;BME280;6377;42.836;23.998;2023-04-08T07:15:57;95787.78;;;9.02;91.93
12624;BME280;6377;42.836;23.998;2023-04-08T07:18:24;95789.59;;;9.18;90.03
12624;BME280;6377;42.836;23.998;2023-04-08T07:21:02;95825.00;;;9.40;88.69
12624;BME280;6377;42.836;23.998;2023-04-08T07:23:30;95786.28;;;9.00;90.44
12624;BME280;6377;42.836;23.998;2023-04-08T07:26:03;95778.88;;;8.79;90.76
12624;BME280;6377;42.836;23.998;2023-04-08T07:28:30;95692.69;;;8.48;90.46
12624;BME280;6377;42.836;23.998;2023-04-08T07:31:08;95667.66;;;8.35;92.06
12624;BME280;6377;42.836;23.998;2023-04-08T07:33:35;95835.53;;;9.64;90.25
12624;BME280;6377;42.836;23.998;2023-04-08T07:36:04;95803.25;;;9.38;86.43
12624;BME280;6377;42.836;23.998;2023-04-08T07:38:31;95802.53;;;9.52;89.14
12624;BME280;6377;42.836;23.998;2023-04-08T07:40:58;95828.38;;;9.81;85.15
12624;BME280;6377;42.836;23.998;2023-04-08T07:43:26;95834.28;;;9.99;86.42
12624;BME280;6377;42.836;23.998;2023-04-08T07:45:55;95800.94;;;9.98;83.67
12624;BME280;6377;42.836;23.998;2023-04-08T07:48:27;95711.53;;;9.32;81.71
12624;BME280;6377;42.836;23.998;2023-04-08T07:50:54;95729.94;;;9.56;83.84
12624;BME280;6377;42.836;23.998;2023-04-08T07:53:23;95833.69;;;10.28;83.68
12624;BME280;6377;42.836;23.998;2023-04-08T07:55:52;95710.47;;;9.49;83.29
12624;BME280;6377;42.836;23.998;2023-04-08T07:58:19;95829.91;;;10.22;84.08
12624;BME280;6377;42.836;23.998;2023-04-08T08:00:46;95703.59;;;9.32;85.58
12624;BME280;6377;42.836;23.998;2023-04-08T08:03:13;95833.78;;;10.42;89.19
12624;BME280;6377;42.836;23.998;2023-04-08T08:05:41;95692.19;;;9.47;84.95
12624;BME280;6377;42.836;23.998;2023-04-08T08:08:08;95816.09;;;10.43;86.58
12624;BME280;6377;42.836;23.998;2023-04-08T08:10:38;95804.19;;;10.47;84.53
12624;BME280;6377;42.836;23.998;2023-04-08T08:13:05;95843.03;;;10.69;84.76
12624;BME280;6377;42.836;23.998;2023-04-08T08:15:33;95816.88;;;10.51;83.34
12624;BME280;6377;42.836;23.998;2023-04-08T08:18:01;95821.03;;;10.46;83.81
12624;BME280;6377;42.836;23.998;2023-04-08T08:20:37;95752.31;;;10.15;83.00
12624;BME280;6377;42.836;23.998;2023-04-08T08:23:04;95687.69;;;9.87;83.37
12624;BME280;6377;42.836;23.998;2023-04-08T08:25:35;95816.56;;;10.77;85.05
12624;BME280;6377;42.836;23.998;2023-04-08T08:28:04;95819.06;;;10.93;83.30
12624;BME280;6377;42.836;23.998;2023-04-08T08:30:31;95812.84;;;11.09;81.55
12624;BME280;6377;42.836;23.998;2023-04-08T08:33:01;95857.75;;;11.40;79.04
12624;BME280;6377;42.836;23.998;2023-04-08T08:35:29;95774.63;;;10.89;78.69
12624;BME280;6377;42.836;23.998;2023-04-08T08:37:56;95881.09;;;11.36;75.46
12624;BME280;6377;42.836;23.998;2023-04-08T08:40:24;95768.00;;;10.70;77.83
12624;BME280;6377;42.836;23.998;2023-04-08T08:42:51;95863.63;;;11.50;76.55
12624;BME280;6377;42.836;23.998;2023-04-08T08:45:20;95810.75;;;11.19;74.51
12624;BME280;6377;42.836;23.998;2023-04-08T08:47:47;95775.31;;;11.05;76.95
12624;BME280;6377;42.836;23.998;2023-04-08T08:50:15;95669.91;;;10.34;75.83
12624;BME280;6377;42.836;23.998;2023-04-08T08:52:48;95719.63;;;10.39;74.90
12624;BME280;6377;42.836;23.998;2023-04-08T08:55:17;95781.25;;;11.07;75.43
12624;BME280;6377;42.836;23.998;2023-04-08T08:57:45;95880.59;;;11.78;73.52
12624;BME280;6377;42.836;23.998;2023-04-08T09:00:13;95867.13;;;12.02;70.31
12624;BME280;6377;42.836;23.998;2023-04-08T09:02:43;95803.75;;;11.78;70.22
12624;BME280;6377;42.836;23.998;2023-04-08T09:05:10;95825.88;;;12.29;68.63
12624;BME280;6377;42.836;23.998;2023-04-08T09:07:38;95836.28;;;12.30;66.55
12624;BME280;6377;42.836;23.998;2023-04-08T09:10:07;95853.28;;;11.92;65.32
12624;BME280;6377;42.836;23.998;2023-04-08T09:12:57;95827.91;;;11.46;68.99
12624;BME280;6377;42.836;23.998;2023-04-08T09:15:25;95828.81;;;11.38;69.56
12624;BME280;6377;42.836;23.998;2023-04-08T09:18:00;95823.47;;;11.23;67.78
12624;BME280;6377;42.836;23.998;2023-04-08T09:20:27;95737.34;;;10.76;71.19
12624;BME280;6377;42.836;23.998;2023-04-08T09:22:56;95820.75;;;11.32;68.93
12624;BME280;6377;42.836;23.998;2023-04-08T09:25:24;95773.16;;;11.09;68.49
12624;BME280;6377;42.836;23.998;2023-04-08T09:27:52;95838.53;;;11.60;64.27
12624;BME280;6377;42.836;23.998;2023-04-08T09:30:21;95774.53;;;11.19;66.57
12624;BME280;6377;42.836;23.998;2023-04-08T09:32:50;95865.91;;;11.75;66.36
12624;BME280;6377;42.836;23.998;2023-04-08T09:35:20;95847.06;;;11.70;67.19
12624;BME280;6377;42.836;23.998;2023-04-08T09:37:48;95853.47;;;11.76;65.91
12624;BME280;6377;42.836;23.998;2023-04-08T09:40:16;95834.09;;;11.75;67.75
12624;BME280;6377;42.836;23.998;2023-04-08T09:42:44;95833.47;;;11.73;64.69
12624;BME280;6377;42.836;23.998;2023-04-08T09:45:16;95785.44;;;11.54;66.17
12624;BME280;6377;42.836;23.998;2023-04-08T09:47:53;95766.88;;;11.54;64.00
12624;BME280;6377;42.836;23.998;2023-04-08T09:50:26;95837.75;;;11.89;64.76
12624;BME280;6377;42.836;23.998;2023-04-08T09:53:00;95812.34;;;11.80;63.56
12624;BME280;6377;42.836;23.998;2023-04-08T09:55:29;95878.72;;;12.30;64.20
12624;BME280;6377;42.836;23.998;2023-04-08T09:58:08;95837.38;;;12.07;65.48
12624;BME280;6377;42.836;23.998;2023-04-08T10:00:39;95878.72;;;12.30;62.62
12624;BME280;6377;42.836;23.998;2023-04-08T10:03:17;95769.75;;;11.52;63.11
12624;BME280;6377;42.836;23.998;2023-04-08T10:05:55;95828.72;;;11.84;63.02
12624;BME280;6377;42.836;23.998;2023-04-08T10:08:23;95816.06;;;11.56;63.88
12624;BME280;6377;42.836;23.998;2023-04-08T10:10:53;95835.38;;;11.79;64.02
12624;BME280;6377;42.836;23.998;2023-04-08T10:13:21;95676.97;;;10.79;65.15
12624;BME280;6377;42.836;23.998;2023-04-08T10:16:17;95871.13;;;12.13;64.41
12624;BME280;6377;42.836;23.998;2023-04-08T10:18:48;95827.72;;;12.14;63.62
12624;BME280;6377;42.836;23.998;2023-04-08T10:21:39;95820.13;;;11.96;62.64
12624;BME280;6377;42.836;23.998;2023-04-08T10:24:13;95852.03;;;12.32;64.15
12624;BME280;6377;42.836;23.998;2023-04-08T10:26:41;95819.38;;;12.31;63.96
12624;BME280;6377;42.836;23.998;2023-04-08T10:32:08;95855.56;;;12.39;61.51
12624;BME280;6377;42.836;23.998;2023-04-08T10:34:56;95747.91;;;11.65;62.53
12624;BME280;6377;42.836;23.998;2023-04-08T10:37:28;95839.03;;;12.22;63.56
12624;BME280;6377;42.836;23.998;2023-04-08T10:39:55;95825.69;;;11.87;63.10
12624;BME280;6377;42.836;23.998;2023-04-08T10:42:28;95707.06;;;10.78;62.88
12624;BME280;6377;42.836;23.998;2023-04-08T10:45:00;95814.31;;;11.63;65.23
12624;BME280;6377;42.836;23.998;2023-04-08T10:47:28;95811.50;;;11.65;64.51
12624;BME280;6377;42.836;23.998;2023-04-08T10:49:58;95816.44;;;11.68;64.48
12624;BME280;6377;42.836;23.998;2023-04-08T10:52:30;95825.81;;;11.56;63.76
12624;BME280;6377;42.836;23.998;2023-04-08T10:54:58;95823.44;;;11.46;64.00
12624;BME280;6377;42.836;23.998;2023-04-08T10:57:26;95832.19;;;11.47;64.72
12624;BME280;6377;42.836;23.998;2023-04-08T10:59:53;95875.88;;;11.65;66.53
12624;BME280;6377;42.836;23.998;2023-04-08T11:02:31;95862.63;;;11.65;67.97
12624;BME280;6377;42.836;23.998;2023-04-08T11:04:59;95815.22;;;11.41;67.89
12624;BME280;6377;42.836;23.998;2023-04-08T11:07:26;95858.16;;;11.89;67.82
12624;BME280;6377;42.836;23.998;2023-04-08T11:09:55;95816.09;;;11.71;65.62
12624;BME280;6377;42.836;23.998;2023-04-08T11:12:22;95810.63;;;11.72;69.52
12624;BME280;6377;42.836;23.998;2023-04-08T11:14:50;95818.81;;;11.77;67.77
12624;BME280;6377;42.836;23.998;2023-04-08T11:17:18;95858.53;;;12.00;66.17
12624;BME280;6377;42.836;23.998;2023-04-08T11:19:45;95820.22;;;11.73;65.86
12624;BME280;6377;42.836;23.998;2023-04-08T11:22:13;95818.19;;;11.75;64.46
12624;BME280;6377;42.836;23.998;2023-04-08T11:24:41;95804.81;;;11.69;64.22
12624;BME280;6377;42.836;23.998;2023-04-08T11:27:10;95855.50;;;12.03;65.39
12624;BME280;6377;42.836;23.998;2023-04-08T11:29:37;95848.56;;;12.02;63.78
12624;BME280;6377;42.836;23.998;2023-04-08T11:32:05;95838.47;;;11.98;64.36
12624;BME280;6377;42.836;23.998;2023-04-08T11:34:38;95847.81;;;12.08;63.49
12624;BME280;6377;42.836;23.998;2023-04-08T11:37:06;95845.16;;;12.23;63.01
12624;BME280;6377;42.836;23.998;2023-04-08T11:39:33;95848.91;;;12.28;62.38
12624;BME280;6377;42.836;23.998;2023-04-08T11:42:01;95758.88;;;12.06;62.51
12624;BME280;6377;42.836;23.998;2023-04-08T11:44:32;95800.59;;;12.69;60.44
12624;BME280;6377;42.836;23.998;2023-04-08T11:47:02;95837.91;;;13.18;58.91
12624;BME280;6377;42.836;23.998;2023-04-08T11:49:43;95841.22;;;13.47;57.22
12624;BME280;6377;42.836;23.998;2023-04-08T11:52:10;95847.19;;;13.50;56.08
12624;BME280;6377;42.836;23.998;2023-04-08T11:54:40;95840.53;;;13.94;54.04
12624;BME280;6377;42.836;23.998;2023-04-08T11:57:08;95843.56;;;14.19;55.08
12624;BME280;6377;42.836;23.998;2023-04-08T11:59:37;95840.25;;;14.45;53.09
12624;BME280;6377;42.836;23.998;2023-04-08T12:02:08;95847.78;;;14.35;53.48
12624;BME280;6377;42.836;23.998;2023-04-08T12:04:35;95824.38;;;14.30;55.88
12624;BME280;6377;42.836;23.998;2023-04-08T12:07:02;95851.88;;;14.85;54.56
12624;BME280;6377;42.836;23.998;2023-04-08T12:09:29;95835.06;;;14.78;51.28
12624;BME280;6377;42.836;23.998;2023-04-08T12:11:57;95828.94;;;14.36;55.24
12624;BME280;6377;42.836;23.998;2023-04-08T12:14:27;95827.31;;;14.35;55.39
12624;BME280;6377;42.836;23.998;2023-04-08T12:16:58;95797.34;;;13.86;53.37
12624;BME280;6377;42.836;23.998;2023-04-08T12:19:26;95821.75;;;13.96;55.05
12624;BME280;6377;42.836;23.998;2023-04-08T12:21:53;95824.78;;;13.59;55.67
12624;BME280;6377;42.836;23.998;2023-04-08T12:24:21;95827.28;;;13.18;59.05
12624;BME280;6377;42.836;23.998;2023-04-08T12:26:48;95821.47;;;12.72;63.34
12624;BME280;6377;42.836;23.998;2023-04-08T12:29:15;95752.56;;;11.48;70.44
12624;BME280;6377;42.836;23.998;2023-04-08T12:31:42;95715.28;;;10.83;78.77
12624;BME280;6377;42.836;23.998;2023-04-08T12:34:11;95849.19;;;11.15;88.16
12624;BME280;6377;42.836;23.998;2023-04-08T12:36:38;95825.72;;;10.89;96.38
12624;BME280;6377;42.836;23.998;2023-04-08T12:39:06;95803.22;;;10.40;100.00
12624;BME280;6377;42.836;23.998;2023-04-08T12:41:33;95759.66;;;9.97;100.00
12624;BME280;6377;42.836;23.998;2023-04-08T12:44:00;95730.59;;;9.58;100.00
12624;BME280;6377;42.836;23.998;2023-04-08T12:46:27;95826.72;;;9.88;100.00
12624;BME280;6377;42.836;23.998;2023-04-08T12:48:55;95857.03;;;10.16;100.00
12624;BME280;6377;42.836;23.998;2023-04-08T12:51:23;95645.84;;;8.98;100.00
12624;BME280;6377;42.836;23.998;2023-04-08T12:53:53;95832.41;;;10.24;100.00
12624;BME280;6377;42.836;23.998;2023-04-08T12:56:20;95834.03;;;10.25;100.00
12624;BME280;6377;42.836;23.998;2023-04-08T12:58:48;95828.28;;;10.21;100.00
12624;BME280;6377;42.836;23.998;2023-04-08T13:01:16;95824.81;;;10.12;100.00
12624;BME280;6377;42.836;23.998;2023-04-08T13:03:43;95695.50;;;9.41;100.00
12624;BME280;6377;42.836;23.998;2023-04-08T13:06:15;95707.22;;;9.39;100.00
12624;BME280;6377;42.836;23.998;2023-04-08T13:08:44;95783.31;;;9.82;100.00
12624;BME280;6377;42.836;23.998;2023-04-08T13:11:11;95701.19;;;9.14;100.00
12624;BME280;6377;42.836;23.998;2023-04-08T13:13:39;95821.09;;;9.91;100.00